createdAt,value
2022-08-25T00:02:28.081Z,19.50
2022-08-25T00:09:31.034Z,19.56
2022-08-25T00:16:22.828Z,19.60
2022-08-25T00:23:14.591Z,19.60
2022-08-25T00:30:17.557Z,19.60
2022-08-25T00:37:20.636Z,19.70
2022-08-25T00:44:26.301Z,19.80
2022-08-25T00:51:19.917Z,19.80
2022-08-25T00:58:28.662Z,19.80
2022-08-25T01:05:31.985Z,19.80
2022-08-25T01:12:35.206Z,19.80
2022-08-25T01:19:50.197Z,19.80
2022-08-25T01:26:45.221Z,19.90
2022-08-25T01:33:47.405Z,19.90
2022-08-25T01:40:43.877Z,19.90
2022-08-25T01:47:47.197Z,19.78
2022-08-25T01:54:51.288Z,19.70
2022-08-25T02:01:59.654Z,19.80
2022-08-25T02:09:03.478Z,19.70
2022-08-25T02:15:56.905Z,19.60
2022-08-25T02:23:00.202Z,19.70
2022-08-25T02:30:03.484Z,19.80
2022-08-25T02:37:00.374Z,19.80
2022-08-25T02:43:47.609Z,19.80
2022-08-25T02:50:50.525Z,19.80
2022-08-25T02:57:55.000Z,19.80
2022-08-25T03:04:58.205Z,19.70
2022-08-25T03:11:41.480Z,19.78
2022-08-25T03:18:44.648Z,19.70
2022-08-25T03:25:46.541Z,19.70
2022-08-25T03:32:36.848Z,19.70
2022-08-25T03:39:00.409Z,19.70
2022-08-25T03:46:07.116Z,19.70
2022-08-25T03:53:10.845Z,19.60
2022-08-25T04:00:16.069Z,19.60
2022-08-25T04:07:18.877Z,19.60
2022-08-25T04:14:22.275Z,19.70
2022-08-25T04:21:25.574Z,19.80
2022-08-25T04:28:28.235Z,19.82
2022-08-25T04:35:31.282Z,19.90
2022-08-25T04:42:35.186Z,19.90
2022-08-25T04:49:37.791Z,19.96
2022-08-25T04:56:40.579Z,20.00
2022-08-25T05:03:41.932Z,20.06
2022-08-25T05:10:45.226Z,20.06
2022-08-25T05:17:39.755Z,20.02
2022-08-25T05:24:42.316Z,20.10
2022-08-25T05:31:49.979Z,20.20
2022-08-25T05:38:46.361Z,20.40
2022-08-25T05:45:49.745Z,20.60
2022-08-25T05:52:52.829Z,20.70
2022-08-25T05:59:55.938Z,20.80
2022-08-25T06:06:59.183Z,20.90
2022-08-25T06:14:01.982Z,21.10
2022-08-25T06:21:04.859Z,21.20
2022-08-25T06:27:57.655Z,21.40
2022-08-25T06:34:49.721Z,21.58
2022-08-25T06:41:52.724Z,21.74
2022-08-25T06:48:55.578Z,22.00
2022-08-25T06:56:02.263Z,22.10
2022-08-25T07:03:08.036Z,22.30
2022-08-25T07:10:11.072Z,22.56
2022-08-25T07:17:16.870Z,22.70
2022-08-25T07:24:12.842Z,22.90
2022-08-25T07:31:15.873Z,23.10
2022-08-25T07:37:59.133Z,23.32
2022-08-25T07:44:40.933Z,23.48
2022-08-25T07:51:19.937Z,23.60
2022-08-25T07:58:23.090Z,23.80
2022-08-25T08:05:26.382Z,24.00
2022-08-25T08:12:23.292Z,24.12
2022-08-25T08:19:17.161Z,24.40
2022-08-25T08:26:20.686Z,24.60
2022-08-25T08:33:40.661Z,24.80
2022-08-25T08:40:43.331Z,25.00
2022-08-25T08:47:48.814Z,25.20
2022-08-25T08:55:02.115Z,25.40
2022-08-25T09:01:59.233Z,25.56
2022-08-25T09:08:44.510Z,25.70
2022-08-25T09:15:14.021Z,25.86
2022-08-25T09:20:59.761Z,26.00
2022-08-25T09:28:06.150Z,26.20
2022-08-25T09:35:02.468Z,26.30
2022-08-25T09:41:59.360Z,26.40
2022-08-25T09:49:05.628Z,26.50
2022-08-25T09:56:14.328Z,26.70
2022-08-25T10:03:22.761Z,26.80
2022-08-25T10:10:37.024Z,26.96
2022-08-25T10:17:34.116Z,27.10
2022-08-25T10:24:37.379Z,27.30
2022-08-25T10:31:12.660Z,27.40
2022-08-25T10:37:05.630Z,27.50
2022-08-25T10:43:19.188Z,27.50
2022-08-25T10:49:20.030Z,27.60
2022-08-25T10:55:40.246Z,27.60
2022-08-25T11:01:45.668Z,27.80
2022-08-25T11:07:45.379Z,27.90
2022-08-25T11:13:47.880Z,27.90
2022-08-25T11:20:05.208Z,28.00
2022-08-25T11:25:43.461Z,28.10
2022-08-25T11:31:39.228Z,28.20
2022-08-25T11:37:30.169Z,28.20
2022-08-25T11:43:37.528Z,28.20
2022-08-25T11:49:38.184Z,28.30
2022-08-25T11:56:06.558Z,28.50
2022-08-25T12:02:42.567Z,28.50
2022-08-25T12:09:00.175Z,28.60
2022-08-25T12:15:14.890Z,28.70
2022-08-25T12:21:43.555Z,28.60
2022-08-25T12:28:21.748Z,28.40
2022-08-25T12:35:11.486Z,28.50
2022-08-25T12:41:31.279Z,28.70
2022-08-25T12:48:27.578Z,28.70
2022-08-25T12:55:37.517Z,28.60
2022-08-25T13:02:30.080Z,28.70
2022-08-25T13:08:49.164Z,28.78
2022-08-25T13:15:47.040Z,28.90
2022-08-25T13:21:52.118Z,29.00
2022-08-25T13:28:40.811Z,29.08
2022-08-25T13:35:52.382Z,29.10
2022-08-25T13:42:50.842Z,29.10
2022-08-25T13:49:18.691Z,29.14
2022-08-25T13:55:50.714Z,29.20
2022-08-25T14:02:19.355Z,29.20
2022-08-25T14:08:41.668Z,29.20
2022-08-25T14:15:42.954Z,29.20
2022-08-25T14:21:43.111Z,29.10
2022-08-25T14:28:08.322Z,29.18
2022-08-25T14:34:33.916Z,29.10
2022-08-25T14:40:19.954Z,29.00
2022-08-25T14:46:11.000Z,29.00
2022-08-25T14:52:54.304Z,29.00
2022-08-25T15:00:02.779Z,29.00
2022-08-25T15:06:55.327Z,28.90
2022-08-25T15:12:48.121Z,28.90
2022-08-25T15:19:06.478Z,28.90
2022-08-25T15:25:28.632Z,28.80
2022-08-25T15:31:39.504Z,28.70
2022-08-25T15:37:52.140Z,28.70
2022-08-25T15:44:01.387Z,28.60
2022-08-25T15:50:43.044Z,28.50
2022-08-25T15:56:52.742Z,28.40
2022-08-25T16:02:36.413Z,28.32
2022-08-25T16:08:55.980Z,28.22
2022-08-25T16:14:42.448Z,28.14
2022-08-25T16:20:28.576Z,28.10
2022-08-25T16:25:59.575Z,27.90
2022-08-25T16:31:29.066Z,27.80
2022-08-25T16:36:54.910Z,27.70
2022-08-25T16:42:26.030Z,27.60
2022-08-25T16:48:12.771Z,27.42
2022-08-25T16:54:00.570Z,27.30
2022-08-25T16:59:26.913Z,27.20
2022-08-25T17:04:54.867Z,27.00
2022-08-25T17:10:44.714Z,26.90
2022-08-25T17:16:10.709Z,26.70
2022-08-25T17:21:37.739Z,26.60
2022-08-25T17:27:05.447Z,26.40
2022-08-25T17:32:53.465Z,26.30
2022-08-25T17:38:20.065Z,26.10
2022-08-25T17:44:22.872Z,26.00
2022-08-25T17:49:50.347Z,25.86
2022-08-25T17:55:49.829Z,25.70
2022-08-25T18:01:49.472Z,25.60
2022-08-25T18:07:56.637Z,25.50
2022-08-25T18:13:35.937Z,25.30
2022-08-25T18:19:55.555Z,25.20
2022-08-25T18:26:30.692Z,25.00
2022-08-25T18:33:06.660Z,24.90
2022-08-25T18:39:16.588Z,24.70
2022-08-25T18:45:59.361Z,24.60
2022-08-25T18:52:26.204Z,24.50
2022-08-25T18:58:28.972Z,24.30
2022-08-25T19:05:04.748Z,24.20
2022-08-25T19:11:39.979Z,24.00
2022-08-25T19:17:24.643Z,23.90
2022-08-25T19:22:47.643Z,23.80
2022-08-25T19:29:03.911Z,23.76
2022-08-25T19:35:14.517Z,23.60
2022-08-25T19:40:55.294Z,23.30
2022-08-25T19:46:25.738Z,23.20
2022-08-25T19:51:57.267Z,23.00
2022-08-25T19:57:42.405Z,22.80
2022-08-25T20:04:02.190Z,22.68
2022-08-25T20:10:45.170Z,22.50
2022-08-25T20:17:28.847Z,22.40
2022-08-25T20:24:09.227Z,22.30
2022-08-25T20:30:55.149Z,22.20
2022-08-25T20:37:37.642Z,22.10
2022-08-25T20:44:23.319Z,21.96
2022-08-25T20:50:46.382Z,21.80
2022-08-25T20:57:40.381Z,21.76
2022-08-25T21:04:23.994Z,21.70
2022-08-25T21:11:07.137Z,21.70
2022-08-25T21:17:52.256Z,21.62
2022-08-25T21:24:30.727Z,21.60
2022-08-25T21:31:13.756Z,21.44
2022-08-25T21:37:45.729Z,21.40
2022-08-25T21:44:28.725Z,21.30
2022-08-25T21:51:11.346Z,21.20
2022-08-25T21:57:53.874Z,21.10
2022-08-25T22:04:36.800Z,21.00
2022-08-25T22:11:24.186Z,20.90
2022-08-25T22:18:06.763Z,20.80
2022-08-25T22:24:50.569Z,20.80
2022-08-25T22:31:33.427Z,20.70
2022-08-25T22:38:07.409Z,20.70
2022-08-25T22:44:55.643Z,20.80
2022-08-25T22:51:47.496Z,20.70
2022-08-25T22:58:10.562Z,20.70
2022-08-25T23:04:55.308Z,20.68
2022-08-25T23:11:38.884Z,20.60
2022-08-25T23:18:21.775Z,20.54
2022-08-25T23:24:57.201Z,20.50
2022-08-25T23:31:40.158Z,20.50
2022-08-25T23:38:22.048Z,20.50
2022-08-25T23:45:04.922Z,20.40
2022-08-25T23:51:47.694Z,20.30
2022-08-25T23:58:31.348Z,20.30
